ARG1784 SABE-SARC
Flight info
| Callsign | ARG1784 |
|---|---|
| Flight time | 1h 10m |
| Altitude | 37000 |
| Route | LANDA4B LANDA UN785 GUA UL793 KILIP KILIP2Z |
| Aircraft | B738/M-SDE2E3FGHIRWXY/LB1 |
Departure
| Time | 2026-04-30 19:08 |
|---|---|
| Airport | Aeroparque Jorge Newbery (SABE) |
Arrival
| Time | 2026-04-30 20:19 |
|---|---|
| Airport | Corrientes Airport (SARC) |
| Time | Latitude | Longitude | Altitude | Speed | Heading |
|---|---|---|---|---|---|
| 2026-04-30 18:39 | -34.55802 | -58.41445 | 28 ft | 0 kts | 208° |
| 2026-04-30 18:55 | -34.55782 | -58.41429 | 28 ft | 3 kts | 233° |
| 2026-04-30 18:55 | -34.55774 | -58.41409 | 28 ft | 3 kts | 271° |
| 2026-04-30 18:56 | -34.55781 | -58.41381 | 28 ft | 0 kts | 303° |
| 2026-04-30 19:00 | -34.55776 | -58.41391 | 28 ft | 3 kts | 303° |
| 2026-04-30 19:00 | -34.55763 | -58.41416 | 28 ft | 5 kts | 303° |
| 2026-04-30 19:00 | -34.55722 | -58.41513 | 28 ft | 8 kts | 280° |
| 2026-04-30 19:01 | -34.55784 | -58.41622 | 27 ft | 9 kts | 270° |
| 2026-04-30 19:01 | -34.55759 | -58.41691 | 27 ft | 9 kts | 297° |
| 2026-04-30 19:02 | -34.55688 | -58.41835 | 27 ft | 10 kts | 303° |
| 2026-04-30 19:02 | -34.55612 | -58.41971 | 28 ft | 10 kts | 304° |
| 2026-04-30 19:03 | -34.55532 | -58.42107 | 28 ft | 10 kts | 307° |
| 2026-04-30 19:03 | -34.55448 | -58.42240 | 28 ft | 10 kts | 307° |
| 2026-04-30 19:04 | -34.55378 | -58.42354 | 27 ft | 5 kts | 304° |
| 2026-04-30 19:04 | -34.55374 | -58.42363 | 27 ft | 0 kts | 297° |
| 2026-04-30 19:06 | -34.55374 | -58.42364 | 27 ft | 1 kts | 297° |
| 2026-04-30 19:06 | -34.55359 | -58.42437 | 27 ft | 6 kts | 278° |
| 2026-04-30 19:07 | -34.55385 | -58.42506 | 27 ft | 4 kts | 199° |
| 2026-04-30 19:07 | -34.55409 | -58.42496 | 27 ft | 4 kts | 140° |
| 2026-04-30 19:08 | -34.55614 | -58.42131 | 28 ft | 77 kts | 124° |
| 2026-04-30 19:08 | -34.56616 | -58.40309 | 360 ft | 160 kts | 121° |
| 2026-04-30 19:08 | -34.57233 | -58.39096 | 977 ft | 178 kts | 117° |
| 2026-04-30 19:09 | -34.57872 | -58.36193 | 2494 ft | 184 kts | 77° |
| 2026-04-30 19:09 | -34.57324 | -58.34804 | 2965 ft | 188 kts | 37° |
| 2026-04-30 19:09 | -34.56125 | -58.34245 | 3473 ft | 192 kts | 355° |
| 2026-04-30 19:10 | -34.53442 | -58.35081 | 4593 ft | 211 kts | 341° |
| 2026-04-30 19:10 | -34.50419 | -58.36256 | 5705 ft | 245 kts | 342° |
| 2026-04-30 19:11 | -34.48745 | -58.36865 | 6348 ft | 258 kts | 342° |
| 2026-04-30 19:11 | -34.45220 | -58.38118 | 7894 ft | 268 kts | 342° |
| 2026-04-30 19:11 | -34.43430 | -58.38758 | 8733 ft | 270 kts | 341° |
| 2026-04-30 19:12 | -34.41623 | -58.39407 | 9568 ft | 273 kts | 340° |
| 2026-04-30 19:12 | -34.39797 | -58.40064 | 10339 ft | 277 kts | 340° |
| 2026-04-30 19:12 | -34.37918 | -58.40742 | 10833 ft | 289 kts | 340° |
| 2026-04-30 19:13 | -34.33871 | -58.42197 | 11635 ft | 319 kts | 340° |
| 2026-04-30 19:13 | -34.29441 | -58.43780 | 12520 ft | 343 kts | 340° |
| 2026-04-30 19:13 | -34.27146 | -58.44597 | 13170 ft | 346 kts | 340° |
| 2026-04-30 19:14 | -34.24827 | -58.45423 | 13847 ft | 350 kts | 340° |
| 2026-04-30 19:14 | -34.22485 | -58.46260 | 14441 ft | 353 kts | 339° |
| 2026-04-30 19:14 | -34.20125 | -58.47103 | 15075 ft | 356 kts | 339° |
| 2026-04-30 19:14 | -34.17750 | -58.47951 | 15712 ft | 358 kts | 339° |
| 2026-04-30 19:15 | -34.15363 | -58.48802 | 16355 ft | 359 kts | 339° |
| 2026-04-30 19:15 | -34.10551 | -58.50516 | 17621 ft | 363 kts | 338° |
| 2026-04-30 19:15 | -34.08122 | -58.51382 | 18234 ft | 366 kts | 338° |
| 2026-04-30 19:16 | -34.05678 | -58.52251 | 18739 ft | 368 kts | 338° |
| 2026-04-30 19:16 | -34.03222 | -58.53124 | 19272 ft | 370 kts | 338° |
| 2026-04-30 19:16 | -33.98268 | -58.54884 | 20288 ft | 374 kts | 338° |
| 2026-04-30 19:17 | -33.95766 | -58.55773 | 20805 ft | 377 kts | 338° |
| 2026-04-30 19:17 | -33.90674 | -58.57423 | 21799 ft | 387 kts | 345° |
| 2026-04-30 19:17 | -33.87966 | -58.57673 | 22297 ft | 394 kts | 350° |
| 2026-04-30 19:18 | -33.83381 | -58.57888 | 23046 ft | 399 kts | 351° |
| 2026-04-30 19:18 | -33.79667 | -58.58017 | 23613 ft | 403 kts | 351° |
| 2026-04-30 19:18 | -33.76864 | -58.58127 | 23969 ft | 405 kts | 351° |
| 2026-04-30 19:19 | -33.74046 | -58.58254 | 24340 ft | 407 kts | 350° |
| 2026-04-30 19:19 | -33.71215 | -58.58388 | 24721 ft | 409 kts | 351° |
| 2026-04-30 19:19 | -33.65512 | -58.58638 | 25420 ft | 413 kts | 351° |
| 2026-04-30 19:20 | -33.62640 | -58.58759 | 25757 ft | 414 kts | 351° |
| 2026-04-30 19:20 | -33.59762 | -58.58881 | 26103 ft | 415 kts | 351° |
| 2026-04-30 19:20 | -33.53970 | -58.59135 | 26770 ft | 419 kts | 351° |
| 2026-04-30 19:21 | -33.51057 | -58.59262 | 27072 ft | 421 kts | 351° |
| 2026-04-30 19:21 | -33.45192 | -58.59516 | 27690 ft | 424 kts | 351° |
| 2026-04-30 19:22 | -33.39283 | -58.59770 | 28251 ft | 427 kts | 351° |
| 2026-04-30 19:22 | -33.30346 | -58.60156 | 29082 ft | 432 kts | 351° |
| 2026-04-30 19:23 | -33.21307 | -58.60546 | 29866 ft | 436 kts | 351° |
| 2026-04-30 19:24 | -33.15231 | -58.60805 | 30275 ft | 439 kts | 352° |
| 2026-04-30 19:24 | -33.12184 | -58.60937 | 30541 ft | 439 kts | 352° |
| 2026-04-30 19:24 | -33.06106 | -58.61197 | 31139 ft | 437 kts | 352° |
| 2026-04-30 19:25 | -32.97050 | -58.61667 | 32012 ft | 432 kts | 349° |
| 2026-04-30 19:26 | -32.91088 | -58.62256 | 32599 ft | 430 kts | 349° |
| 2026-04-30 19:26 | -32.85139 | -58.62773 | 33193 ft | 429 kts | 349° |
| 2026-04-30 19:26 | -32.82169 | -58.63001 | 33488 ft | 428 kts | 349° |
| 2026-04-30 19:27 | -32.76247 | -58.63488 | 34069 ft | 426 kts | 349° |
| 2026-04-30 19:27 | -32.70358 | -58.63996 | 34548 ft | 424 kts | 349° |
| 2026-04-30 19:28 | -32.67420 | -58.64243 | 34791 ft | 424 kts | 349° |
| 2026-04-30 19:28 | -32.61553 | -58.64729 | 35252 ft | 423 kts | 348° |
| 2026-04-30 19:29 | -32.55699 | -58.65219 | 35710 ft | 422 kts | 348° |
| 2026-04-30 19:29 | -32.52776 | -58.65464 | 35932 ft | 422 kts | 348° |
| 2026-04-30 19:30 | -32.44026 | -58.66193 | 36586 ft | 420 kts | 348° |
| 2026-04-30 19:30 | -32.38194 | -58.66681 | 36843 ft | 424 kts | 348° |
| 2026-04-30 19:31 | -32.32281 | -58.67176 | 36963 ft | 430 kts | 348° |
| 2026-04-30 19:31 | -32.23283 | -58.67900 | 36979 ft | 435 kts | 348° |
| 2026-04-30 19:32 | -32.17255 | -58.68389 | 36983 ft | 435 kts | 348° |
| 2026-04-30 19:32 | -32.11217 | -58.68881 | 36981 ft | 436 kts | 348° |
| 2026-04-30 19:33 | -32.05171 | -58.69369 | 36960 ft | 436 kts | 348° |
| 2026-04-30 19:33 | -31.99128 | -58.69857 | 36980 ft | 436 kts | 348° |
| 2026-04-30 19:34 | -31.93083 | -58.70346 | 36981 ft | 436 kts | 348° |
| 2026-04-30 19:35 | -31.84010 | -58.71077 | 36980 ft | 437 kts | 348° |
| 2026-04-30 19:35 | -31.77965 | -58.71563 | 36970 ft | 436 kts | 348° |
| 2026-04-30 19:36 | -31.71927 | -58.72048 | 36975 ft | 436 kts | 348° |
| 2026-04-30 19:36 | -31.62891 | -58.72773 | 36974 ft | 434 kts | 348° |
| 2026-04-30 19:37 | -31.56881 | -58.73254 | 36965 ft | 433 kts | 347° |
| 2026-04-30 19:37 | -31.50877 | -58.73735 | 36975 ft | 433 kts | 347° |
| 2026-04-30 19:38 | -31.44876 | -58.74215 | 36979 ft | 433 kts | 347° |
| 2026-04-30 19:38 | -31.38884 | -58.74692 | 36974 ft | 432 kts | 347° |
| 2026-04-30 19:39 | -31.32897 | -58.75170 | 36969 ft | 432 kts | 347° |
| 2026-04-30 19:39 | -31.26906 | -58.75648 | 36973 ft | 433 kts | 347° |
| 2026-04-30 19:40 | -31.20911 | -58.76124 | 36971 ft | 433 kts | 347° |
| 2026-04-30 19:40 | -31.14916 | -58.76599 | 36971 ft | 433 kts | 347° |
| 2026-04-30 19:41 | -31.08927 | -58.77074 | 36959 ft | 432 kts | 347° |
| 2026-04-30 19:41 | -31.02935 | -58.77550 | 36965 ft | 433 kts | 347° |
| 2026-04-30 19:42 | -30.96939 | -58.78023 | 36969 ft | 433 kts | 347° |
| 2026-04-30 19:42 | -30.90951 | -58.78500 | 36966 ft | 432 kts | 347° |
| 2026-04-30 19:43 | -30.84977 | -58.79023 | 36970 ft | 431 kts | 347° |
| 2026-04-30 19:44 | -30.76012 | -58.79798 | 36971 ft | 432 kts | 347° |
| 2026-04-30 19:44 | -30.70037 | -58.80306 | 36967 ft | 432 kts | 347° |
| 2026-04-30 19:45 | -30.64063 | -58.80819 | 36944 ft | 431 kts | 347° |
| 2026-04-30 19:45 | -30.58091 | -58.81330 | 36955 ft | 431 kts | 347° |
| 2026-04-30 19:46 | -30.52114 | -58.81840 | 36959 ft | 432 kts | 347° |
| 2026-04-30 19:46 | -30.46137 | -58.82341 | 36959 ft | 431 kts | 347° |
| 2026-04-30 19:47 | -30.40160 | -58.82804 | 36951 ft | 431 kts | 347° |
| 2026-04-30 19:47 | -30.34187 | -58.83274 | 36958 ft | 431 kts | 347° |
| 2026-04-30 19:48 | -30.28213 | -58.83753 | 36960 ft | 431 kts | 347° |
| 2026-04-30 19:48 | -30.22241 | -58.84223 | 36961 ft | 431 kts | 347° |
| 2026-04-30 19:49 | -30.16275 | -58.84693 | 36943 ft | 430 kts | 347° |
| 2026-04-30 19:49 | -30.07328 | -58.85401 | 36956 ft | 431 kts | 347° |
| 2026-04-30 19:50 | -30.01362 | -58.85870 | 36955 ft | 430 kts | 347° |
| 2026-04-30 19:50 | -29.95400 | -58.86339 | 36952 ft | 430 kts | 347° |
| 2026-04-30 19:51 | -29.89439 | -58.86808 | 36953 ft | 430 kts | 347° |
| 2026-04-30 19:51 | -29.83479 | -58.87275 | 36955 ft | 430 kts | 347° |
| 2026-04-30 19:52 | -29.77519 | -58.87742 | 36952 ft | 430 kts | 347° |
| 2026-04-30 19:52 | -29.74516 | -58.87981 | 36467 ft | 436 kts | 347° |
| 2026-04-30 19:52 | -29.71511 | -58.88216 | 35957 ft | 432 kts | 348° |
| 2026-04-30 19:53 | -29.68529 | -58.88444 | 35495 ft | 429 kts | 348° |
| 2026-04-30 19:53 | -29.65566 | -58.88673 | 35035 ft | 426 kts | 348° |
| 2026-04-30 19:53 | -29.62621 | -58.88906 | 34573 ft | 424 kts | 348° |
| 2026-04-30 19:53 | -29.59689 | -58.89142 | 34114 ft | 422 kts | 348° |
| 2026-04-30 19:54 | -29.56769 | -58.89375 | 33617 ft | 421 kts | 349° |
| 2026-04-30 19:54 | -29.53864 | -58.89604 | 33147 ft | 418 kts | 349° |
| 2026-04-30 19:54 | -29.50978 | -58.89829 | 32693 ft | 415 kts | 349° |
| 2026-04-30 19:54 | -29.48111 | -58.90054 | 32238 ft | 413 kts | 349° |
| 2026-04-30 19:55 | -29.45260 | -58.90279 | 31783 ft | 410 kts | 349° |
| 2026-04-30 19:55 | -29.42425 | -58.90503 | 31344 ft | 408 kts | 349° |
| 2026-04-30 19:55 | -29.39603 | -58.90726 | 30901 ft | 407 kts | 349° |
| 2026-04-30 19:55 | -29.36792 | -58.90948 | 30459 ft | 405 kts | 350° |
| 2026-04-30 19:56 | -29.33989 | -58.91168 | 30019 ft | 404 kts | 350° |
| 2026-04-30 19:56 | -29.31196 | -58.91387 | 29549 ft | 402 kts | 350° |
| 2026-04-30 19:56 | -29.28417 | -58.91604 | 29090 ft | 400 kts | 350° |
| 2026-04-30 19:56 | -29.25655 | -58.91821 | 28648 ft | 397 kts | 351° |
| 2026-04-30 19:57 | -29.22912 | -58.92036 | 28205 ft | 395 kts | 351° |
| 2026-04-30 19:57 | -29.20186 | -58.92250 | 27783 ft | 392 kts | 351° |
| 2026-04-30 19:57 | -29.17478 | -58.92462 | 27363 ft | 390 kts | 351° |
| 2026-04-30 19:57 | -29.14783 | -58.92674 | 26938 ft | 388 kts | 351° |
| 2026-04-30 19:58 | -29.12102 | -58.92884 | 26513 ft | 386 kts | 351° |
| 2026-04-30 19:58 | -29.09433 | -58.93092 | 26101 ft | 384 kts | 351° |
| 2026-04-30 19:58 | -29.06775 | -58.93300 | 25685 ft | 383 kts | 352° |
| 2026-04-30 19:58 | -29.04127 | -58.93507 | 25267 ft | 382 kts | 352° |
| 2026-04-30 19:59 | -29.01489 | -58.93713 | 24850 ft | 380 kts | 352° |
| 2026-04-30 19:59 | -28.98859 | -58.93919 | 24437 ft | 379 kts | 352° |
| 2026-04-30 19:59 | -28.93622 | -58.94327 | 23615 ft | 377 kts | 352° |
| 2026-04-30 20:00 | -28.91014 | -58.94531 | 23162 ft | 376 kts | 352° |
| 2026-04-30 20:00 | -28.88423 | -58.94732 | 22739 ft | 373 kts | 353° |
| 2026-04-30 20:00 | -28.85847 | -58.94932 | 22330 ft | 371 kts | 353° |
| 2026-04-30 20:00 | -28.83288 | -58.95131 | 21929 ft | 368 kts | 353° |
| 2026-04-30 20:01 | -28.78212 | -58.95524 | 21128 ft | 364 kts | 353° |
| 2026-04-30 20:01 | -28.75698 | -58.95719 | 20729 ft | 362 kts | 353° |
| 2026-04-30 20:01 | -28.73197 | -58.95912 | 20324 ft | 360 kts | 353° |
| 2026-04-30 20:02 | -28.68235 | -58.96296 | 19555 ft | 356 kts | 353° |
| 2026-04-30 20:02 | -28.65773 | -58.96486 | 19167 ft | 355 kts | 353° |
| 2026-04-30 20:03 | -28.60883 | -58.96864 | 18394 ft | 351 kts | 353° |
| 2026-04-30 20:03 | -28.58455 | -58.97051 | 17990 ft | 349 kts | 353° |
| 2026-04-30 20:03 | -28.56043 | -58.97237 | 17592 ft | 347 kts | 354° |
| 2026-04-30 20:03 | -28.53653 | -58.97421 | 17214 ft | 343 kts | 354° |
| 2026-04-30 20:04 | -28.51286 | -58.97603 | 16845 ft | 340 kts | 354° |
| 2026-04-30 20:04 | -28.48942 | -58.97784 | 16463 ft | 337 kts | 354° |
| 2026-04-30 20:04 | -28.46627 | -58.97962 | 16167 ft | 331 kts | 354° |
| 2026-04-30 20:05 | -28.42069 | -58.98313 | 15371 ft | 327 kts | 354° |
| 2026-04-30 20:05 | -28.39806 | -58.98488 | 14978 ft | 326 kts | 354° |
| 2026-04-30 20:05 | -28.35315 | -58.98419 | 14171 ft | 325 kts | 10° |
| 2026-04-30 20:06 | -28.33123 | -58.97845 | 13799 ft | 323 kts | 11° |
| 2026-04-30 20:06 | -28.30952 | -58.97229 | 13366 ft | 321 kts | 12° |
| 2026-04-30 20:06 | -28.28800 | -58.96595 | 12946 ft | 319 kts | 13° |
| 2026-04-30 20:06 | -28.26667 | -58.95971 | 12563 ft | 316 kts | 13° |
| 2026-04-30 20:07 | -28.24554 | -58.95364 | 12158 ft | 312 kts | 13° |
| 2026-04-30 20:07 | -28.22462 | -58.94772 | 11753 ft | 309 kts | 13° |
| 2026-04-30 20:07 | -28.18333 | -58.93602 | 10948 ft | 304 kts | 13° |
| 2026-04-30 20:08 | -28.16298 | -58.93022 | 10565 ft | 301 kts | 13° |
| 2026-04-30 20:08 | -28.14283 | -58.92447 | 10180 ft | 298 kts | 13° |
| 2026-04-30 20:08 | -28.12289 | -58.91879 | 9793 ft | 295 kts | 14° |
| 2026-04-30 20:08 | -28.10315 | -58.91317 | 9341 ft | 292 kts | 13° |
| 2026-04-30 20:09 | -28.08354 | -58.90760 | 8879 ft | 290 kts | 13° |
| 2026-04-30 20:09 | -28.06402 | -58.90205 | 8413 ft | 289 kts | 13° |
| 2026-04-30 20:09 | -28.02517 | -58.89102 | 7544 ft | 287 kts | 13° |
| 2026-04-30 20:10 | -27.98662 | -58.88007 | 6715 ft | 285 kts | 12° |
| 2026-04-30 20:10 | -27.96743 | -58.87463 | 6288 ft | 285 kts | 12° |
| 2026-04-30 20:10 | -27.94829 | -58.86921 | 5859 ft | 283 kts | 12° |
| 2026-04-30 20:11 | -27.91029 | -58.85846 | 5057 ft | 281 kts | 13° |
| 2026-04-30 20:11 | -27.89135 | -58.85309 | 4663 ft | 281 kts | 14° |
| 2026-04-30 20:11 | -27.87248 | -58.84774 | 4249 ft | 279 kts | 14° |
| 2026-04-30 20:12 | -27.83514 | -58.83717 | 3533 ft | 274 kts | 14° |
| 2026-04-30 20:12 | -27.81675 | -58.83196 | 3177 ft | 272 kts | 14° |
| 2026-04-30 20:12 | -27.79851 | -58.82682 | 3037 ft | 270 kts | 15° |
| 2026-04-30 20:13 | -27.78015 | -58.82162 | 3043 ft | 274 kts | 14° |
| 2026-04-30 20:13 | -27.76179 | -58.81642 | 3028 ft | 272 kts | 14° |
| 2026-04-30 20:13 | -27.74344 | -58.81124 | 3026 ft | 273 kts | 15° |
| 2026-04-30 20:13 | -27.72510 | -58.80607 | 3024 ft | 272 kts | 15° |
| 2026-04-30 20:14 | -27.70637 | -58.80225 | 2884 ft | 279 kts | 10° |
| 2026-04-30 20:14 | -27.68712 | -58.79912 | 2661 ft | 280 kts | 9° |
| 2026-04-30 20:14 | -27.66815 | -58.79626 | 2412 ft | 272 kts | 9° |
| 2026-04-30 20:14 | -27.64945 | -58.79345 | 2161 ft | 272 kts | 9° |
| 2026-04-30 20:15 | -27.63068 | -58.79057 | 2035 ft | 272 kts | 9° |
| 2026-04-30 20:15 | -27.61199 | -58.78765 | 2027 ft | 271 kts | 10° |
| 2026-04-30 20:15 | -27.59347 | -58.78477 | 2002 ft | 268 kts | 10° |
| 2026-04-30 20:15 | -27.57514 | -58.78197 | 1981 ft | 258 kts | 9° |
| 2026-04-30 20:16 | -27.55829 | -58.77941 | 1985 ft | 232 kts | 10° |
| 2026-04-30 20:16 | -27.54349 | -58.77713 | 1911 ft | 200 kts | 11° |
| 2026-04-30 20:16 | -27.53052 | -58.77512 | 1746 ft | 179 kts | 11° |
| 2026-04-30 20:16 | -27.51878 | -58.77327 | 1527 ft | 164 kts | 12° |
| 2026-04-30 20:17 | -27.50777 | -58.77153 | 1295 ft | 156 kts | 11° |
| 2026-04-30 20:17 | -27.49747 | -58.76991 | 1096 ft | 145 kts | 11° |
| 2026-04-30 20:17 | -27.48771 | -58.76837 | 928 ft | 140 kts | 12° |
| 2026-04-30 20:17 | -27.47816 | -58.76685 | 730 ft | 139 kts | 11° |
| 2026-04-30 20:18 | -27.46848 | -58.76535 | 584 ft | 144 kts | 11° |
| 2026-04-30 20:18 | -27.45827 | -58.76373 | 385 ft | 153 kts | 11° |
| 2026-04-30 20:18 | -27.44756 | -58.76222 | 222 ft | 154 kts | 11° |
| 2026-04-30 20:18 | -27.43987 | -58.76093 | 216 ft | 50 kts | 7° |
| 2026-04-30 20:19 | -27.43870 | -58.76064 | 216 ft | 8 kts | 26° |
| 2026-04-30 20:19 | -27.43849 | -58.76067 | 218 ft | 1 kts | 290° |
| 2026-04-30 20:19 | -27.43867 | -58.76077 | 220 ft | 8 kts | 203° |
| 2026-04-30 20:19 | -27.43959 | -58.76090 | 217 ft | 17 kts | 186° |
| 2026-04-30 20:20 | -27.44094 | -58.76109 | 216 ft | 22 kts | 186° |
| 2026-04-30 20:20 | -27.44268 | -58.76134 | 213 ft | 28 kts | 188° |
| 2026-04-30 20:20 | -27.44475 | -58.76167 | 219 ft | 30 kts | 188° |
| 2026-04-30 20:20 | -27.44672 | -58.76198 | 210 ft | 26 kts | 188° |
| 2026-04-30 20:21 | -27.44772 | -58.76175 | 210 ft | 13 kts | 126° |
| 2026-04-30 20:21 | -27.44792 | -58.76091 | 216 ft | 10 kts | 99° |
| 2026-04-30 20:21 | -27.44801 | -58.76024 | 217 ft | 8 kts | 98° |
| 2026-04-30 20:21 | -27.44809 | -58.75967 | 213 ft | 7 kts | 99° |
| 2026-04-30 20:22 | -27.44818 | -58.75917 | 217 ft | 6 kts | 107° |
| 2026-04-30 20:22 | -27.44839 | -58.75882 | 216 ft | 4 kts | 137° |
| 2026-04-30 20:22 | -27.44851 | -58.75872 | 213 ft | 0 kts | 146° |